createdAt,value
2019-02-04T00:00:49.463Z,100367.00
2019-02-04T00:02:54.921Z,100370.00
2019-02-04T00:04:59.868Z,100360.00
2019-02-04T00:07:04.924Z,100355.00
2019-02-04T00:09:11.895Z,100361.00
2019-02-04T00:11:16.952Z,100359.00
2019-02-04T00:13:22.094Z,100356.00
2019-02-04T00:15:27.254Z,100350.00
2019-02-04T00:17:32.448Z,100349.00
2019-02-04T00:19:37.602Z,100348.00
2019-02-04T00:21:42.794Z,100346.00
2019-02-04T00:23:47.867Z,100337.00
2019-02-04T00:25:52.938Z,100331.00
2019-02-04T00:27:57.922Z,100340.00
2019-02-04T00:30:03.053Z,100330.00
2019-02-04T00:32:08.310Z,100339.00
2019-02-04T00:34:13.427Z,100347.00
2019-02-04T00:36:18.580Z,100339.00
2019-02-04T00:38:23.576Z,100346.00
2019-02-04T00:40:29.378Z,100340.00
2019-02-04T00:42:34.463Z,100351.00
2019-02-04T00:44:39.750Z,100355.00
2019-02-04T00:46:51.995Z,100356.00
2019-02-04T00:48:52.482Z,100351.00
2019-02-04T00:50:57.542Z,100346.00
2019-02-04T00:53:02.618Z,100353.00
2019-02-04T00:55:08.629Z,100360.00
2019-02-04T00:57:13.871Z,100359.00
2019-02-04T00:59:18.870Z,100357.00
2019-02-04T01:01:23.947Z,100361.00
2019-02-04T01:03:29.152Z,100375.00
2019-02-04T01:05:34.286Z,100372.00
2019-02-04T01:07:39.728Z,100373.00
2019-02-04T01:09:44.825Z,100379.00
2019-02-04T01:11:49.882Z,100373.00
2019-02-04T01:13:55.048Z,100372.00
2019-02-04T01:16:00.046Z,100376.00
2019-02-04T01:18:05.514Z,100379.00
2019-02-04T01:20:13.315Z,100385.00
2019-02-04T01:22:18.298Z,100391.00
2019-02-04T01:24:23.457Z,100387.00
2019-02-04T01:26:28.650Z,100395.00
2019-02-04T01:28:33.637Z,100399.00
2019-02-04T01:30:38.879Z,100399.00
2019-02-04T01:32:43.889Z,100399.00
2019-02-04T01:34:49.082Z,100404.00
2019-02-04T01:36:54.172Z,100398.00
2019-02-04T01:38:59.125Z,100402.00
2019-02-04T01:41:04.332Z,100397.00
2019-02-04T01:43:09.713Z,100392.00
2019-02-04T01:45:14.877Z,100396.00
2019-02-04T01:47:19.954Z,100406.00
2019-02-04T01:49:25.144Z,100395.00
2019-02-04T01:51:30.241Z,100399.00
2019-02-04T01:53:35.389Z,100406.00
2019-02-04T01:55:40.827Z,100406.00
2019-02-04T01:57:48.462Z,100415.00
2019-02-04T01:59:53.570Z,100410.00
2019-02-04T02:01:58.714Z,100411.00
2019-02-04T02:04:03.981Z,100413.00
2019-02-04T02:06:09.145Z,100401.00
2019-02-04T02:08:14.653Z,100416.00
2019-02-04T02:10:22.009Z,100411.00
2019-02-04T02:12:27.163Z,100407.00
2019-02-04T02:14:32.353Z,100393.00
2019-02-04T02:16:37.334Z,100397.00
2019-02-04T02:18:42.435Z,100390.00
2019-02-04T02:20:47.856Z,100411.00
2019-02-04T02:22:53.079Z,100405.00
2019-02-04T02:24:58.146Z,100402.00
2019-02-04T02:27:03.347Z,100400.00
2019-02-04T02:29:08.518Z,100415.00
2019-02-04T02:31:13.559Z,100421.00
2019-02-04T02:33:18.560Z,100411.00
2019-02-04T02:35:23.724Z,100402.00
2019-02-04T02:37:28.795Z,100414.00
2019-02-04T02:39:33.891Z,100407.00
2019-02-04T02:41:38.825Z,100398.00
2019-02-04T02:43:44.231Z,100394.00
2019-02-04T02:45:49.321Z,100391.00
2019-02-04T02:47:54.541Z,100391.00
2019-02-04T02:49:59.539Z,100398.00
2019-02-04T02:52:04.659Z,100396.00
2019-02-04T02:54:09.900Z,100401.00
2019-02-04T02:56:14.976Z,100401.00
2019-02-04T02:58:20.023Z,100408.00
2019-02-04T03:00:27.922Z,100398.00
2019-02-04T03:02:32.990Z,100402.00
2019-02-04T03:04:38.017Z,100399.00
2019-02-04T03:06:43.510Z,100399.00
2019-02-04T03:08:48.680Z,100387.00
2019-02-04T03:10:53.806Z,100396.00
2019-02-04T03:12:58.974Z,100388.00
2019-02-04T03:15:04.881Z,100389.00
2019-02-04T03:17:10.085Z,100397.00
2019-02-04T03:19:15.529Z,100402.00
2019-02-04T03:21:20.597Z,100394.00
2019-02-04T03:23:25.541Z,100406.00
2019-02-04T03:25:30.768Z,100396.00
2019-02-04T03:27:35.829Z,100395.00
2019-02-04T03:29:40.826Z,100408.00
2019-02-04T03:31:46.623Z,100397.00
2019-02-04T03:33:51.596Z,100398.00
2019-02-04T03:35:56.775Z,100393.00
2019-02-04T03:38:01.856Z,100388.00
2019-02-04T03:40:08.335Z,100401.00
2019-02-04T03:42:13.599Z,100395.00
2019-02-04T03:44:18.702Z,100392.00
2019-02-04T03:46:23.951Z,100398.00
2019-02-04T03:48:29.048Z,100402.00
2019-02-04T03:50:34.139Z,100387.00
2019-02-04T03:52:39.291Z,100399.00
2019-02-04T03:54:44.909Z,100400.00
2019-02-04T03:56:50.055Z,100404.00
2019-02-04T03:58:55.202Z,100414.00
2019-02-04T04:01:00.382Z,100418.00
2019-02-04T04:03:05.864Z,100421.00
2019-02-04T04:05:11.248Z,100428.00
2019-02-04T04:07:16.550Z,100427.00
2019-02-04T04:09:21.686Z,100429.00
2019-02-04T04:11:26.934Z,100424.00
2019-02-04T04:13:31.949Z,100427.00
2019-02-04T04:15:36.928Z,100426.00
2019-02-04T04:17:42.086Z,100427.00
2019-02-04T04:19:47.164Z,100434.00
2019-02-04T04:21:52.209Z,100439.00
2019-02-04T04:23:57.267Z,100430.00
2019-02-04T04:26:02.489Z,100435.00
2019-02-04T04:28:07.630Z,100435.00
2019-02-04T04:30:20.184Z,100426.00
2019-02-04T04:32:25.324Z,100430.00
2019-02-04T04:34:30.364Z,100433.00
2019-02-04T04:36:35.455Z,100421.00
2019-02-04T04:38:40.665Z,100416.00
2019-02-04T04:40:45.742Z,100421.00
2019-02-04T04:42:51.172Z,100420.00
2019-02-04T04:44:56.497Z,100424.00
2019-02-04T04:47:01.638Z,100416.00
2019-02-04T04:49:06.814Z,100415.00
2019-02-04T04:51:11.937Z,100419.00
2019-02-04T04:53:16.935Z,100412.00
2019-02-04T04:55:25.125Z,100417.00
2019-02-04T04:57:30.133Z,100408.00
2019-02-04T04:59:35.128Z,100413.00
2019-02-04T05:01:40.159Z,100416.00
2019-02-04T05:03:45.175Z,100424.00
2019-02-04T05:05:50.338Z,100420.00
2019-02-04T05:07:55.361Z,100415.00
2019-02-04T05:10:00.471Z,100425.00
2019-02-04T05:12:05.552Z,100423.00
2019-02-04T05:14:10.571Z,100410.00
2019-02-04T05:16:15.500Z,100421.00
2019-02-04T05:18:21.041Z,100415.00
2019-02-04T05:20:26.297Z,100414.00
2019-02-04T05:22:31.464Z,100418.00
2019-02-04T05:24:36.557Z,100409.00
2019-02-04T05:26:41.567Z,100422.00
2019-02-04T05:28:46.589Z,100414.00
2019-02-04T05:30:51.680Z,100426.00
2019-02-04T05:32:56.844Z,100419.00
2019-02-04T05:35:01.870Z,100425.00
2019-02-04T05:37:07.005Z,100419.00
2019-02-04T05:39:12.098Z,100410.00
2019-02-04T05:41:17.580Z,100423.00
2019-02-04T05:43:22.503Z,100422.00
2019-02-04T05:45:27.522Z,100418.00
2019-02-04T05:47:32.527Z,100421.00
2019-02-04T05:49:37.722Z,100421.00
2019-02-04T05:51:42.725Z,100424.00
2019-02-04T05:53:47.982Z,100419.00
2019-02-04T05:55:52.984Z,100415.00
2019-02-04T05:57:58.027Z,100422.00
2019-02-04T06:00:03.701Z,100419.00
2019-02-04T06:02:09.479Z,100417.00
2019-02-04T06:04:14.673Z,100421.00
2019-02-04T06:06:19.757Z,100427.00
2019-02-04T06:08:24.686Z,100430.00
2019-02-04T06:10:29.817Z,100432.00
2019-02-04T06:12:35.146Z,100426.00
2019-02-04T06:14:40.211Z,100433.00
2019-02-04T06:16:45.670Z,100432.00
2019-02-04T06:19:00.502Z,100436.00
2019-02-04T06:20:57.572Z,100437.00
2019-02-04T06:23:02.499Z,100448.00
2019-02-04T06:25:08.032Z,100438.00
2019-02-04T06:27:13.177Z,100444.00
2019-02-04T06:29:18.181Z,100446.00
2019-02-04T06:31:23.572Z,100448.00
2019-02-04T06:33:28.594Z,100449.00
2019-02-04T06:35:33.654Z,100443.00
2019-02-04T06:37:38.807Z,100446.00
2019-02-04T06:39:43.939Z,100453.00
2019-02-04T06:41:48.934Z,100447.00
2019-02-04T06:43:53.941Z,100447.00
2019-02-04T06:45:58.890Z,100450.00
2019-02-04T06:48:04.273Z,100444.00
2019-02-04T06:50:12.499Z,100456.00
2019-02-04T06:52:17.856Z,100452.00
2019-02-04T06:54:23.100Z,100449.00
2019-02-04T06:56:28.135Z,100442.00
2019-02-04T06:58:33.142Z,100442.00
2019-02-04T07:00:38.204Z,100447.00
2019-02-04T07:02:43.503Z,100449.00
2019-02-04T07:04:48.516Z,100454.00
2019-02-04T07:06:53.652Z,100450.00
2019-02-04T07:08:58.803Z,100448.00
2019-02-04T07:11:04.067Z,100446.00
2019-02-04T07:13:09.216Z,100441.00
2019-02-04T07:15:14.969Z,100441.00
2019-02-04T07:17:19.916Z,100447.00
2019-02-04T07:19:24.981Z,100445.00
2019-02-04T07:21:30.218Z,100444.00
2019-02-04T07:23:35.369Z,100455.00
2019-02-04T07:25:40.544Z,100444.00
2019-02-04T07:27:45.689Z,100445.00
2019-02-04T07:29:50.780Z,100441.00
2019-02-04T07:31:55.774Z,100442.00
2019-02-04T07:34:00.768Z,100452.00
2019-02-04T07:36:05.997Z,100443.00
2019-02-04T07:38:11.218Z,100445.00
2019-02-04T07:40:28.992Z,100448.00
2019-02-04T07:42:33.975Z,100444.00
2019-02-04T07:44:39.156Z,100440.00
2019-02-04T07:46:44.323Z,100437.00
2019-02-04T07:48:49.392Z,100451.00
2019-02-04T07:50:54.754Z,100434.00
2019-02-04T07:52:59.815Z,100435.00
2019-02-04T07:55:05.236Z,100434.00
2019-02-04T07:57:10.293Z,100440.00
2019-02-04T07:59:15.359Z,100430.00
2019-02-04T08:01:20.444Z,100433.00
2019-02-04T08:03:25.888Z,100434.00
2019-02-04T08:05:31.218Z,100434.00
2019-02-04T08:07:36.378Z,100430.00
2019-02-04T08:09:41.391Z,100434.00
2019-02-04T08:11:46.450Z,100433.00
2019-02-04T08:13:51.559Z,100427.00
2019-02-04T08:15:56.879Z,100418.00
2019-02-04T08:18:01.912Z,100433.00
2019-02-04T08:20:08.094Z,100425.00
2019-02-04T08:22:13.184Z,100424.00
2019-02-04T08:24:18.221Z,100434.00
2019-02-04T08:26:23.663Z,100433.00
2019-02-04T08:28:28.806Z,100428.00
2019-02-04T08:30:38.167Z,100437.00
2019-02-04T08:32:42.895Z,100433.00
2019-02-04T08:34:47.828Z,100431.00
2019-02-04T08:36:52.929Z,100447.00
2019-02-04T08:38:57.914Z,100451.00
2019-02-04T08:41:02.990Z,100448.00
2019-02-04T08:43:08.258Z,100447.00
2019-02-04T08:45:15.156Z,100442.00
2019-02-04T08:47:22.823Z,100446.00
2019-02-04T08:49:26.813Z,100451.00
2019-02-04T08:51:31.984Z,100443.00
2019-02-04T08:53:37.125Z,100441.00
2019-02-04T08:55:42.244Z,100439.00
2019-02-04T08:57:47.759Z,100432.00
2019-02-04T08:59:52.894Z,100430.00
2019-02-04T09:01:57.966Z,100443.00
2019-02-04T09:04:03.141Z,100438.00
2019-02-04T09:06:08.381Z,100432.00
2019-02-04T09:08:13.586Z,100437.00
2019-02-04T09:10:26.695Z,100438.00
2019-02-04T09:12:32.008Z,100424.00
2019-02-04T09:14:37.080Z,100426.00
2019-02-04T09:16:42.261Z,100418.00
2019-02-04T09:18:47.567Z,100406.00
2019-02-04T09:20:52.633Z,100410.00
2019-02-04T09:22:57.809Z,100411.00
2019-02-04T09:25:02.810Z,100417.00
2019-02-04T09:27:07.955Z,100409.00
2019-02-04T09:29:12.920Z,100402.00
2019-02-04T09:31:18.031Z,100395.00
2019-02-04T09:33:23.119Z,100388.00
2019-02-04T09:35:28.769Z,100393.00
2019-02-04T09:37:33.895Z,100391.00
2019-02-04T09:39:39.032Z,100396.00
2019-02-04T09:41:44.095Z,100391.00
2019-02-04T09:43:49.090Z,100389.00
2019-02-04T09:45:54.251Z,100385.00
2019-02-04T09:47:59.509Z,100387.00
2019-02-04T09:50:05.370Z,100392.00
2019-02-04T09:52:10.550Z,100386.00
2019-02-04T09:54:15.781Z,100386.00
2019-02-04T09:56:20.896Z,100376.00
2019-02-04T09:58:26.010Z,100374.00
2019-02-04T10:00:33.381Z,100380.00
2019-02-04T10:02:38.521Z,100373.00
2019-02-04T10:04:43.453Z,100368.00
2019-02-04T10:06:48.626Z,100366.00
2019-02-04T10:08:53.697Z,100356.00
2019-02-04T10:10:58.784Z,100357.00
2019-02-04T10:13:04.249Z,100352.00
2019-02-04T10:15:14.104Z,100359.00
2019-02-04T10:17:19.208Z,100352.00
2019-02-04T10:19:25.479Z,100352.00
2019-02-04T10:21:31.959Z,100353.00
2019-02-04T10:23:37.145Z,100354.00
2019-02-04T10:25:43.501Z,100344.00
2019-02-04T10:27:48.643Z,100346.00
2019-02-04T10:29:57.063Z,100357.00
2019-02-04T10:32:02.123Z,100346.00
2019-02-04T10:34:07.278Z,100344.00
2019-02-04T10:36:12.407Z,100342.00
2019-02-04T10:38:17.539Z,100357.00
2019-02-04T10:40:24.699Z,100310.00
2019-02-04T10:42:30.091Z,100343.00
2019-02-04T10:44:35.216Z,100347.00
2019-02-04T10:46:40.351Z,100340.00
2019-02-04T10:48:45.394Z,100341.00
2019-02-04T10:50:50.556Z,100337.00
2019-02-04T10:52:55.820Z,100342.00
2019-02-04T10:55:00.845Z,100343.00
2019-02-04T10:57:06.020Z,100335.00
2019-02-04T10:59:11.366Z,100335.00
2019-02-04T11:01:16.668Z,100333.00
2019-02-04T11:03:21.839Z,100334.00
2019-02-04T11:05:29.039Z,100318.00
2019-02-04T11:07:34.191Z,100318.00
2019-02-04T11:09:39.354Z,100322.00
2019-02-04T11:11:44.521Z,100312.00
2019-02-04T11:13:49.686Z,100311.00
2019-02-04T11:15:54.840Z,100317.00
2019-02-04T11:18:00.144Z,100316.00
2019-02-04T11:20:08.234Z,100319.00
2019-02-04T11:22:14.034Z,100311.00
2019-02-04T11:24:19.101Z,100305.00
2019-02-04T11:26:24.118Z,100313.00
2019-02-04T11:28:29.152Z,100297.00
2019-02-04T11:30:59.191Z,100302.00
2019-02-04T11:33:05.291Z,100296.00
2019-02-04T11:35:10.697Z,100290.00
2019-02-04T11:37:15.840Z,100293.00
2019-02-04T11:39:21.094Z,100286.00
2019-02-04T11:41:26.304Z,100290.00
2019-02-04T11:43:31.422Z,100291.00
2019-02-04T11:45:37.320Z,100293.00
2019-02-04T11:47:42.397Z,100286.00
2019-02-04T11:49:47.414Z,100287.00
2019-02-04T11:51:52.581Z,100293.00
2019-02-04T11:53:57.577Z,100288.00
2019-02-04T11:56:02.647Z,100294.00
2019-02-04T11:58:09.407Z,100288.00
2019-02-04T12:00:18.910Z,100285.00
2019-02-04T12:02:34.417Z,100282.00
2019-02-04T12:04:30.874Z,100276.00
2019-02-04T12:06:36.058Z,100276.00
2019-02-04T12:08:41.140Z,100266.00
2019-02-04T12:10:54.360Z,100279.00
2019-02-04T12:12:59.548Z,100276.00
2019-02-04T12:15:07.012Z,100272.00
2019-02-04T12:17:12.439Z,100269.00
2019-02-04T12:19:17.526Z,100262.00
2019-02-04T12:21:22.601Z,100257.00
2019-02-04T12:23:27.770Z,100265.00
2019-02-04T12:25:32.983Z,100265.00
2019-02-04T12:27:38.149Z,100265.00
2019-02-04T12:29:43.219Z,100261.00
2019-02-04T12:31:48.274Z,100257.00
2019-02-04T12:33:53.384Z,100258.00
2019-02-04T12:35:58.547Z,100262.00
2019-02-04T12:38:03.643Z,100250.00
2019-02-04T12:40:11.656Z,100259.00
2019-02-04T12:42:16.886Z,100260.00
2019-02-04T12:44:22.142Z,100248.00
2019-02-04T12:46:27.253Z,100250.00
2019-02-04T12:48:32.333Z,100244.00
2019-02-04T12:50:37.586Z,100246.00
2019-02-04T12:52:42.726Z,100251.00
2019-02-04T12:54:47.751Z,100244.00
2019-02-04T12:56:52.863Z,100245.00
2019-02-04T12:58:57.908Z,100244.00
2019-02-04T13:01:03.043Z,100241.00
2019-02-04T13:03:08.731Z,100251.00
2019-02-04T13:05:18.815Z,100239.00
2019-02-04T13:07:23.890Z,100243.00
2019-02-04T13:09:28.911Z,100245.00
2019-02-04T13:11:33.834Z,100237.00
2019-02-04T13:13:39.096Z,100249.00
2019-02-04T13:15:44.615Z,100243.00
2019-02-04T13:17:50.020Z,100244.00
2019-02-04T13:19:55.041Z,100239.00
2019-02-04T13:22:00.104Z,100248.00
2019-02-04T13:24:05.560Z,100249.00
2019-02-04T13:26:10.707Z,100241.00
2019-02-04T13:28:25.308Z,100242.00
2019-02-04T13:30:31.092Z,100241.00
2019-02-04T13:32:36.098Z,100250.00
2019-02-04T13:34:41.255Z,100236.00
2019-02-04T13:36:46.573Z,100244.00
2019-02-04T13:38:51.682Z,100237.00
2019-02-04T13:41:07.573Z,100240.00
2019-02-04T13:43:04.297Z,100237.00
2019-02-04T13:45:13.004Z,100228.00
2019-02-04T13:47:18.067Z,100232.00
2019-02-04T13:49:23.288Z,100223.00
2019-02-04T13:51:30.356Z,100224.00
2019-02-04T13:53:35.037Z,100226.00
2019-02-04T13:55:41.303Z,100224.00
2019-02-04T13:57:46.478Z,100228.00
2019-02-04T13:59:51.690Z,100227.00
2019-02-04T14:01:56.849Z,100227.00
2019-02-04T14:04:01.967Z,100230.00
2019-02-04T14:06:09.985Z,100232.00
2019-02-04T14:08:15.164Z,100222.00
2019-02-04T14:10:26.032Z,100222.00
2019-02-04T14:12:31.113Z,100233.00
2019-02-04T14:14:36.280Z,100232.00
2019-02-04T14:16:41.409Z,100228.00
2019-02-04T14:18:46.607Z,100221.00
2019-02-04T14:20:51.983Z,100214.00
2019-02-04T14:22:57.399Z,100215.00
2019-02-04T14:25:02.542Z,100219.00
2019-02-04T14:27:07.594Z,100213.00
2019-02-04T14:29:12.607Z,100210.00
2019-02-04T14:31:17.985Z,100206.00
2019-02-04T14:33:23.233Z,100210.00
2019-02-04T14:35:28.958Z,100203.00
2019-02-04T14:37:34.562Z,100211.00
2019-02-04T14:39:39.622Z,100211.00
2019-02-04T14:41:44.613Z,100209.00
2019-02-04T14:44:26.750Z,100207.00
2019-02-04T14:47:13.725Z,100210.00
2019-02-04T14:50:04.235Z,100203.00
2019-02-04T14:52:58.104Z,100204.00
2019-02-04T14:55:34.875Z,100192.00
2019-02-04T14:58:30.564Z,100189.00
2019-02-04T15:01:33.045Z,100189.00
2019-02-04T15:04:30.724Z,100190.00
2019-02-04T15:07:18.874Z,100176.00
2019-02-04T15:10:04.163Z,100177.00
2019-02-04T15:12:50.355Z,100176.00
2019-02-04T15:15:31.010Z,100169.00
2019-02-04T15:18:16.203Z,100172.00
2019-02-04T15:21:43.101Z,100171.00
2019-02-04T15:24:39.091Z,100181.00
2019-02-04T15:27:51.528Z,100177.00
2019-02-04T15:30:30.777Z,100178.00
2019-02-04T15:33:03.468Z,100170.00
2019-02-04T15:36:13.453Z,100173.00
2019-02-04T15:38:54.068Z,100162.00
2019-02-04T15:42:01.811Z,100164.00
2019-02-04T15:44:38.439Z,100163.00
2019-02-04T15:47:05.736Z,100165.00
2019-02-04T15:50:08.347Z,100177.00
2019-02-04T15:52:13.514Z,100157.00
2019-02-04T15:54:18.600Z,100152.00
2019-02-04T15:56:23.814Z,100155.00
2019-02-04T15:58:28.946Z,100150.00
2019-02-04T16:00:34.091Z,100146.00
2019-02-04T16:02:39.717Z,100148.00
2019-02-04T16:04:44.843Z,100154.00
2019-02-04T16:06:49.995Z,100145.00
2019-02-04T16:08:55.115Z,100145.00
2019-02-04T16:11:00.148Z,100153.00
2019-02-04T16:13:05.389Z,100147.00
2019-02-04T16:15:12.409Z,100150.00
2019-02-04T16:17:17.829Z,100150.00
2019-02-04T16:19:22.944Z,100140.00
2019-02-04T16:21:28.115Z,100148.00
2019-02-04T16:23:33.272Z,100153.00
2019-02-04T16:25:38.883Z,100153.00
2019-02-04T16:27:44.162Z,100149.00
2019-02-04T16:29:49.329Z,100148.00
2019-02-04T16:31:54.510Z,100154.00
2019-02-04T16:33:59.559Z,100159.00
2019-02-04T16:36:04.980Z,100155.00
2019-02-04T16:38:10.223Z,100152.00
2019-02-04T16:40:18.264Z,100160.00
2019-02-04T16:42:23.439Z,100155.00
2019-02-04T16:44:28.556Z,100147.00
2019-02-04T16:46:33.637Z,100148.00
2019-02-04T16:48:38.986Z,100148.00
2019-02-04T16:50:44.165Z,100151.00
2019-02-04T16:52:49.406Z,100155.00
2019-02-04T16:54:54.460Z,100153.00
2019-02-04T16:56:59.621Z,100162.00
2019-02-04T16:59:05.175Z,100158.00
2019-02-04T17:01:10.231Z,100166.00
2019-02-04T17:03:15.343Z,100149.00
2019-02-04T17:05:21.667Z,100163.00
2019-02-04T17:07:26.867Z,100164.00
2019-02-04T17:09:31.991Z,100167.00
2019-02-04T17:11:37.599Z,100169.00
2019-02-04T17:13:42.573Z,100170.00
2019-02-04T17:15:47.709Z,100165.00
2019-02-04T17:17:53.088Z,100168.00
2019-02-04T17:19:58.151Z,100156.00
2019-02-04T17:22:03.276Z,100149.00
2019-02-04T17:24:08.430Z,100152.00
2019-02-04T17:26:13.497Z,100149.00
2019-02-04T17:28:18.595Z,100154.00
2019-02-04T17:30:24.952Z,100156.00
2019-02-04T17:32:30.092Z,100153.00
2019-02-04T17:34:35.458Z,100138.00
2019-02-04T17:36:40.563Z,100155.00
2019-02-04T17:38:45.755Z,100144.00
2019-02-04T17:40:50.873Z,100147.00
2019-02-04T17:42:57.270Z,100152.00
2019-02-04T17:45:02.349Z,100145.00
2019-02-04T17:47:07.996Z,100138.00
2019-02-04T17:49:13.239Z,100131.00
2019-02-04T17:51:18.298Z,100139.00
2019-02-04T17:53:33.881Z,100133.00
2019-02-04T17:55:30.771Z,100140.00
2019-02-04T17:57:35.887Z,100134.00
2019-02-04T17:59:40.963Z,100138.00
2019-02-04T18:01:45.963Z,100141.00
2019-02-04T18:03:51.076Z,100153.00
2019-02-04T18:05:56.221Z,100149.00
2019-02-04T18:08:01.442Z,100145.00
2019-02-04T18:10:07.694Z,100147.00
2019-02-04T18:12:12.786Z,100142.00
2019-02-04T18:14:17.959Z,100152.00
2019-02-04T18:16:23.200Z,100159.00
2019-02-04T18:18:28.370Z,100157.00
2019-02-04T18:20:33.447Z,100159.00
2019-02-04T18:22:38.604Z,100158.00
2019-02-04T18:24:43.674Z,100153.00
2019-02-04T18:26:48.747Z,100160.00
2019-02-04T18:28:53.939Z,100153.00
2019-02-04T18:30:59.081Z,100150.00
2019-02-04T18:33:04.461Z,100152.00
2019-02-04T18:35:11.141Z,100152.00
2019-02-04T18:37:16.269Z,100159.00
2019-02-04T18:39:21.436Z,100160.00
2019-02-04T18:41:26.636Z,100155.00
2019-02-04T18:43:31.803Z,100157.00
2019-02-04T18:45:36.892Z,100171.00
2019-02-04T18:47:42.005Z,100166.00
2019-02-04T18:49:47.094Z,100166.00
2019-02-04T18:51:52.226Z,100167.00
2019-02-04T18:53:58.153Z,100168.00
2019-02-04T18:56:03.400Z,100174.00
2019-02-04T18:58:08.766Z,100177.00
2019-02-04T19:00:17.768Z,100161.00
2019-02-04T19:02:22.768Z,100172.00
2019-02-04T19:04:27.943Z,100163.00
2019-02-04T19:06:33.018Z,100164.00
2019-02-04T19:08:38.207Z,100149.00
2019-02-04T19:10:43.692Z,100147.00
2019-02-04T19:12:48.998Z,100149.00
2019-02-04T19:14:54.748Z,100149.00
2019-02-04T19:16:59.835Z,100138.00
2019-02-04T19:19:05.368Z,100135.00
2019-02-04T19:21:10.640Z,100134.00
2019-02-04T19:23:15.770Z,100124.00
2019-02-04T19:25:21.774Z,100128.00
2019-02-04T19:27:27.020Z,100136.00
2019-02-04T19:29:31.983Z,100140.00
2019-02-04T19:31:37.122Z,100146.00
2019-02-04T19:33:42.582Z,100141.00
2019-02-04T19:35:47.713Z,100146.00
2019-02-04T19:37:52.827Z,100145.00
2019-02-04T19:39:57.826Z,100148.00
2019-02-04T19:42:02.897Z,100143.00
2019-02-04T19:44:08.215Z,100154.00
2019-02-04T19:46:13.272Z,100147.00
2019-02-04T19:48:18.355Z,100151.00
2019-02-04T19:50:30.036Z,100154.00
2019-02-04T19:52:35.188Z,100147.00
2019-02-04T19:54:40.214Z,100150.00
2019-02-04T19:56:45.283Z,100161.00
2019-02-04T19:58:50.538Z,100147.00
2019-02-04T20:00:55.701Z,100148.00
2019-02-04T20:03:00.800Z,100141.00
2019-02-04T20:05:08.444Z,100147.00
2019-02-04T20:07:13.601Z,100138.00
2019-02-04T20:09:19.147Z,100130.00
2019-02-04T20:11:24.292Z,100124.00
2019-02-04T20:13:29.595Z,100108.00
2019-02-04T20:15:34.936Z,100116.00
2019-02-04T20:17:40.006Z,100117.00
2019-02-04T20:19:45.165Z,100122.00
2019-02-04T20:21:50.164Z,100120.00
2019-02-04T20:23:55.407Z,100109.00
2019-02-04T20:26:00.495Z,100116.00
2019-02-04T20:28:06.225Z,100116.00
2019-02-04T20:30:19.808Z,100112.00
2019-02-04T20:32:24.797Z,100120.00
2019-02-04T20:34:29.844Z,100122.00
2019-02-04T20:36:35.024Z,100115.00
2019-02-04T20:38:40.095Z,100124.00
2019-02-04T20:40:45.190Z,100114.00
2019-02-04T20:42:50.282Z,100116.00
2019-02-04T20:44:57.144Z,100120.00
2019-02-04T20:47:02.087Z,100125.00
2019-02-04T20:49:07.434Z,100130.00
2019-02-04T20:51:12.569Z,100140.00
2019-02-04T20:53:17.723Z,100148.00
2019-02-04T20:55:23.961Z,100139.00
2019-02-04T20:57:28.968Z,100135.00
2019-02-04T20:59:34.275Z,100143.00
2019-02-04T21:01:39.376Z,100139.00
2019-02-04T21:03:44.438Z,100144.00
2019-02-04T21:05:49.547Z,100151.00
2019-02-04T21:07:55.141Z,100154.00
2019-02-04T21:10:00.324Z,100157.00
2019-02-04T21:12:05.868Z,100159.00
2019-02-04T21:14:11.015Z,100150.00
2019-02-04T21:16:15.985Z,100159.00
2019-02-04T21:18:21.044Z,100161.00
2019-02-04T21:20:27.121Z,100173.00
2019-02-04T21:22:32.211Z,100169.00
2019-02-04T21:24:37.145Z,100178.00
2019-02-04T21:26:42.066Z,100184.00
2019-02-04T21:28:47.193Z,100177.00
2019-02-04T21:30:52.426Z,100177.00
2019-02-04T21:32:57.959Z,100181.00
2019-02-04T21:35:03.069Z,100168.00
2019-02-04T21:37:08.437Z,100177.00
2019-02-04T21:39:13.992Z,100182.00
2019-02-04T21:41:19.065Z,100188.00
2019-02-04T21:43:43.189Z,100197.00
2019-02-04T21:45:48.513Z,100202.00
2019-02-04T21:47:53.568Z,100204.00
2019-02-04T21:50:00.128Z,100196.00
2019-02-04T21:52:05.657Z,100177.00
2019-02-04T21:54:10.710Z,100176.00
2019-02-04T21:56:15.799Z,100189.00
2019-02-04T21:58:21.036Z,100191.00
2019-02-04T22:00:32.963Z,100194.00
2019-02-04T22:02:37.980Z,100191.00
2019-02-04T22:04:43.015Z,100197.00
2019-02-04T22:06:47.946Z,100187.00
2019-02-04T22:08:53.064Z,100183.00
2019-02-04T22:10:58.304Z,100186.00
2019-02-04T22:13:03.450Z,100195.00
2019-02-04T22:15:09.169Z,100185.00
2019-02-04T22:17:14.346Z,100176.00
2019-02-04T22:19:19.429Z,100174.00
2019-02-04T22:21:24.384Z,100182.00
2019-02-04T22:23:29.411Z,100179.00
2019-02-04T22:25:34.882Z,100189.00
2019-02-04T22:27:39.945Z,100175.00
2019-02-04T22:29:44.909Z,100180.00
2019-02-04T22:31:50.042Z,100179.00
2019-02-04T22:33:55.408Z,100183.00
2019-02-04T22:36:00.718Z,100187.00
2019-02-04T22:38:05.994Z,100181.00
2019-02-04T22:40:15.503Z,100181.00
2019-02-04T22:42:20.694Z,100174.00
2019-02-04T22:44:25.887Z,100175.00
2019-02-04T22:46:30.769Z,100183.00
2019-02-04T22:48:35.959Z,100192.00
2019-02-04T22:50:40.994Z,100192.00
2019-02-04T22:52:46.148Z,100205.00
2019-02-04T22:54:51.632Z,100198.00
2019-02-04T22:56:56.813Z,100211.00
2019-02-04T22:59:01.940Z,100202.00
2019-02-04T23:01:45.855Z,100212.00
2019-02-04T23:03:51.005Z,100206.00
2019-02-04T23:05:56.215Z,100208.00
2019-02-04T23:08:01.311Z,100207.00
2019-02-04T23:10:08.066Z,100210.00
2019-02-04T23:12:13.209Z,100199.00
2019-02-04T23:14:18.320Z,100203.00
2019-02-04T23:16:23.502Z,100206.00
2019-02-04T23:18:28.651Z,100201.00
2019-02-04T23:20:33.656Z,100199.00
2019-02-04T23:22:38.858Z,100196.00
2019-02-04T23:24:43.954Z,100193.00
2019-02-04T23:26:49.048Z,100200.00
2019-02-04T23:28:54.079Z,100202.00
2019-02-04T23:30:59.225Z,100212.00
2019-02-04T23:33:05.087Z,100206.00
2019-02-04T23:35:10.861Z,100210.00
2019-02-04T23:37:15.967Z,100215.00
2019-02-04T23:39:21.119Z,100223.00
2019-02-04T23:41:26.166Z,100215.00
2019-02-04T23:43:31.275Z,100220.00
2019-02-04T23:45:36.415Z,100216.00
2019-02-04T23:47:41.483Z,100227.00
2019-02-04T23:49:46.567Z,100234.00
2019-02-04T23:51:51.634Z,100223.00
2019-02-04T23:53:56.797Z,100231.00
2019-02-04T23:56:01.885Z,100221.00
2019-02-04T23:58:07.181Z,100223.00
